sensor_id;sensor_type;location;lat;lon;timestamp;P1;durP1;ratioP1;P2;durP2;ratioP2
48588;SDS011;34369;51.174;6.738;2023-04-24T00:01:11;31.58;;;29.60;;
48588;SDS011;34369;51.174;6.738;2023-04-24T00:03:43;31.40;;;29.50;;
48588;SDS011;34369;51.174;6.738;2023-04-24T00:06:14;30.57;;;28.67;;
48588;SDS011;34369;51.174;6.738;2023-04-24T00:08:47;31.25;;;29.25;;
48588;SDS011;34369;51.174;6.738;2023-04-24T00:11:21;32.27;;;30.27;;
48588;SDS011;34369;51.174;6.738;2023-04-24T00:13:53;31.63;;;29.57;;
48588;SDS011;34369;51.174;6.738;2023-04-24T00:16:25;30.52;;;28.63;;
48588;SDS011;34369;51.174;6.738;2023-04-24T00:18:57;31.08;;;29.17;;
48588;SDS011;34369;51.174;6.738;2023-04-24T00:21:30;31.83;;;29.83;;
48588;SDS011;34369;51.174;6.738;2023-04-24T00:24:02;30.53;;;28.57;;
48588;SDS011;34369;51.174;6.738;2023-04-24T00:26:36;31.27;;;29.38;;
48588;SDS011;34369;51.174;6.738;2023-04-24T00:29:08;31.17;;;29.27;;
48588;SDS011;34369;51.174;6.738;2023-04-24T00:31:40;32.13;;;30.23;;
48588;SDS011;34369;51.174;6.738;2023-04-24T00:34:12;32.43;;;30.43;;
48588;SDS011;34369;51.174;6.738;2023-04-24T00:36:44;31.27;;;29.37;;
48588;SDS011;34369;51.174;6.738;2023-04-24T00:39:16;30.60;;;28.70;;
48588;SDS011;34369;51.174;6.738;2023-04-24T00:41:49;31.50;;;29.60;;
48588;SDS011;34369;51.174;6.738;2023-04-24T00:44:22;30.97;;;29.07;;
48588;SDS011;34369;51.174;6.738;2023-04-24T00:46:54;31.63;;;29.63;;
48588;SDS011;34369;51.174;6.738;2023-04-24T00:49:26;32.17;;;30.17;;
48588;SDS011;34369;51.174;6.738;2023-04-24T00:51:59;31.35;;;29.45;;
48588;SDS011;34369;51.174;6.738;2023-04-24T00:54:31;30.50;;;28.60;;
48588;SDS011;34369;51.174;6.738;2023-04-24T00:57:06;32.30;;;30.30;;
48588;SDS011;34369;51.174;6.738;2023-04-24T00:59:39;31.98;;;29.98;;
48588;SDS011;34369;51.174;6.738;2023-04-24T01:02:12;30.33;;;28.43;;
48588;SDS011;34369;51.174;6.738;2023-04-24T01:04:45;31.40;;;29.50;;
48588;SDS011;34369;51.174;6.738;2023-04-24T01:07:18;31.57;;;29.60;;
48588;SDS011;34369;51.174;6.738;2023-04-24T01:09:51;33.03;;;30.93;;
48588;SDS011;34369;51.174;6.738;2023-04-24T01:12:25;32.30;;;30.20;;
48588;SDS011;34369;51.174;6.738;2023-04-24T01:14:58;31.83;;;29.73;;
48588;SDS011;34369;51.174;6.738;2023-04-24T01:17:33;33.20;;;31.10;;
48588;SDS011;34369;51.174;6.738;2023-04-24T01:20:06;33.03;;;30.83;;
48588;SDS011;34369;51.174;6.738;2023-04-24T01:22:42;33.40;;;31.20;;
48588;SDS011;34369;51.174;6.738;2023-04-24T01:25:14;33.53;;;31.43;;
48588;SDS011;34369;51.174;6.738;2023-04-24T01:27:47;34.17;;;31.87;;
48588;SDS011;34369;51.174;6.738;2023-04-24T01:30:19;34.20;;;32.00;;
48588;SDS011;34369;51.174;6.738;2023-04-24T01:32:51;34.10;;;31.90;;
48588;SDS011;34369;51.174;6.738;2023-04-24T01:35:25;34.77;;;32.57;;
48588;SDS011;34369;51.174;6.738;2023-04-24T01:38:00;35.42;;;32.95;;
48588;SDS011;34369;51.174;6.738;2023-04-24T01:40:32;35.63;;;33.27;;
48588;SDS011;34369;51.174;6.738;2023-04-24T01:43:05;35.47;;;33.03;;
48588;SDS011;34369;51.174;6.738;2023-04-24T01:45:37;36.10;;;33.80;;
48588;SDS011;34369;51.174;6.738;2023-04-24T01:48:10;35.67;;;33.40;;
48588;SDS011;34369;51.174;6.738;2023-04-24T01:50:43;35.90;;;33.60;;
48588;SDS011;34369;51.174;6.738;2023-04-24T01:53:17;35.23;;;32.83;;
48588;SDS011;34369;51.174;6.738;2023-04-24T01:55:49;35.80;;;33.40;;
48588;SDS011;34369;51.174;6.738;2023-04-24T01:58:22;35.30;;;33.00;;
48588;SDS011;34369;51.174;6.738;2023-04-24T02:00:55;36.20;;;33.80;;
48588;SDS011;34369;51.174;6.738;2023-04-24T02:03:29;36.17;;;33.77;;
48588;SDS011;34369;51.174;6.738;2023-04-24T02:06:01;36.27;;;33.63;;
48588;SDS011;34369;51.174;6.738;2023-04-24T02:08:36;37.23;;;34.73;;
48588;SDS011;34369;51.174;6.738;2023-04-24T02:11:08;36.37;;;33.97;;
48588;SDS011;34369;51.174;6.738;2023-04-24T02:13:41;36.37;;;33.97;;
48588;SDS011;34369;51.174;6.738;2023-04-24T02:16:16;35.67;;;33.17;;
48588;SDS011;34369;51.174;6.738;2023-04-24T02:18:48;36.57;;;34.07;;
48588;SDS011;34369;51.174;6.738;2023-04-24T02:21:21;36.33;;;33.83;;
48588;SDS011;34369;51.174;6.738;2023-04-24T02:23:54;38.10;;;35.50;;
48588;SDS011;34369;51.174;6.738;2023-04-24T02:26:27;35.80;;;33.37;;
48588;SDS011;34369;51.174;6.738;2023-04-24T02:29:01;36.70;;;33.97;;
48588;SDS011;34369;51.174;6.738;2023-04-24T02:31:33;35.20;;;32.73;;
48588;SDS011;34369;51.174;6.738;2023-04-24T02:34:05;37.23;;;34.53;;
48588;SDS011;34369;51.174;6.738;2023-04-24T02:36:37;37.57;;;35.07;;
48588;SDS011;34369;51.174;6.738;2023-04-24T02:39:12;36.22;;;33.75;;
48588;SDS011;34369;51.174;6.738;2023-04-24T02:41:46;37.53;;;35.03;;
48588;SDS011;34369;51.174;6.738;2023-04-24T02:44:18;36.93;;;34.40;;
48588;SDS011;34369;51.174;6.738;2023-04-24T02:46:51;37.07;;;34.47;;
48588;SDS011;34369;51.174;6.738;2023-04-24T02:49:23;37.80;;;35.30;;
48588;SDS011;34369;51.174;6.738;2023-04-24T02:51:57;36.53;;;34.00;;
48588;SDS011;34369;51.174;6.738;2023-04-24T02:54:33;38.50;;;35.80;;
48588;SDS011;34369;51.174;6.738;2023-04-24T02:57:06;38.07;;;35.37;;
48588;SDS011;34369;51.174;6.738;2023-04-24T02:59:38;37.57;;;35.07;;
48588;SDS011;34369;51.174;6.738;2023-04-24T03:02:10;37.30;;;34.70;;
48588;SDS011;34369;51.174;6.738;2023-04-24T03:04:45;37.07;;;34.47;;
48588;SDS011;34369;51.174;6.738;2023-04-24T03:07:17;36.27;;;33.77;;
48588;SDS011;34369;51.174;6.738;2023-04-24T03:09:52;37.17;;;34.57;;
48588;SDS011;34369;51.174;6.738;2023-04-24T03:12:25;36.47;;;34.07;;
48588;SDS011;34369;51.174;6.738;2023-04-24T03:14:57;37.80;;;35.20;;
48588;SDS011;34369;51.174;6.738;2023-04-24T03:17:30;37.17;;;34.47;;
48588;SDS011;34369;51.174;6.738;2023-04-24T03:20:03;35.30;;;32.90;;
48588;SDS011;34369;51.174;6.738;2023-04-24T03:22:38;36.47;;;34.00;;
48588;SDS011;34369;51.174;6.738;2023-04-24T03:25:11;36.43;;;33.70;;
48588;SDS011;34369;51.174;6.738;2023-04-24T03:27:43;37.10;;;34.40;;
48588;SDS011;34369;51.174;6.738;2023-04-24T03:30:16;37.50;;;34.83;;
48588;SDS011;34369;51.174;6.738;2023-04-24T03:32:48;36.73;;;34.17;;
48588;SDS011;34369;51.174;6.738;2023-04-24T03:35:20;36.20;;;33.70;;
48588;SDS011;34369;51.174;6.738;2023-04-24T03:37:52;36.60;;;34.10;;
48588;SDS011;34369;51.174;6.738;2023-04-24T03:40:25;35.83;;;33.33;;
48588;SDS011;34369;51.174;6.738;2023-04-24T03:42:59;37.13;;;34.63;;
48588;SDS011;34369;51.174;6.738;2023-04-24T03:45:31;37.43;;;34.83;;
48588;SDS011;34369;51.174;6.738;2023-04-24T03:48:03;37.40;;;34.73;;
48588;SDS011;34369;51.174;6.738;2023-04-24T03:50:35;37.53;;;34.83;;
48588;SDS011;34369;51.174;6.738;2023-04-24T03:53:07;35.73;;;33.23;;
48588;SDS011;34369;51.174;6.738;2023-04-24T03:55:40;35.83;;;33.33;;
48588;SDS011;34369;51.174;6.738;2023-04-24T03:58:12;37.00;;;34.43;;
48588;SDS011;34369;51.174;6.738;2023-04-24T04:00:44;37.63;;;35.00;;
48588;SDS011;34369;51.174;6.738;2023-04-24T04:03:18;38.20;;;35.70;;
48588;SDS011;34369;51.174;6.738;2023-04-24T04:05:49;37.60;;;35.10;;
48588;SDS011;34369;51.174;6.738;2023-04-24T04:08:21;37.77;;;35.23;;
48588;SDS011;34369;51.174;6.738;2023-04-24T04:10:54;38.23;;;35.57;;
48588;SDS011;34369;51.174;6.738;2023-04-24T04:13:26;37.10;;;34.43;;
48588;SDS011;34369;51.174;6.738;2023-04-24T04:15:58;38.43;;;35.77;;
48588;SDS011;34369;51.174;6.738;2023-04-24T04:18:30;36.93;;;34.33;;
48588;SDS011;34369;51.174;6.738;2023-04-24T04:21:03;36.63;;;34.20;;
48588;SDS011;34369;51.174;6.738;2023-04-24T04:23:35;35.67;;;33.27;;
48588;SDS011;34369;51.174;6.738;2023-04-24T04:26:08;36.07;;;33.57;;
48588;SDS011;34369;51.174;6.738;2023-04-24T04:28:40;37.60;;;34.93;;
48588;SDS011;34369;51.174;6.738;2023-04-24T04:31:14;38.03;;;35.43;;
48588;SDS011;34369;51.174;6.738;2023-04-24T04:33:49;37.67;;;35.13;;
48588;SDS011;34369;51.174;6.738;2023-04-24T04:36:21;36.33;;;33.73;;
48588;SDS011;34369;51.174;6.738;2023-04-24T04:38:53;37.47;;;34.87;;
48588;SDS011;34369;51.174;6.738;2023-04-24T04:41:27;36.50;;;34.00;;
48588;SDS011;34369;51.174;6.738;2023-04-24T04:44:00;36.67;;;34.17;;
48588;SDS011;34369;51.174;6.738;2023-04-24T04:46:34;37.17;;;34.77;;
48588;SDS011;34369;51.174;6.738;2023-04-24T04:49:07;38.70;;;35.90;;
48588;SDS011;34369;51.174;6.738;2023-04-24T04:51:40;35.77;;;33.27;;
48588;SDS011;34369;51.174;6.738;2023-04-24T04:54:12;37.67;;;35.17;;
48588;SDS011;34369;51.174;6.738;2023-04-24T04:56:46;35.40;;;32.97;;
48588;SDS011;34369;51.174;6.738;2023-04-24T04:59:18;38.17;;;35.67;;
48588;SDS011;34369;51.174;6.738;2023-04-24T05:01:49;37.90;;;35.50;;
48588;SDS011;34369;51.174;6.738;2023-04-24T05:04:21;37.43;;;34.93;;
48588;SDS011;34369;51.174;6.738;2023-04-24T05:06:53;35.63;;;33.23;;
48588;SDS011;34369;51.174;6.738;2023-04-24T05:09:25;37.47;;;34.90;;
48588;SDS011;34369;51.174;6.738;2023-04-24T05:12:00;37.43;;;35.03;;
48588;SDS011;34369;51.174;6.738;2023-04-24T05:14:32;36.83;;;34.43;;
48588;SDS011;34369;51.174;6.738;2023-04-24T05:17:06;36.13;;;33.73;;
48588;SDS011;34369;51.174;6.738;2023-04-24T05:19:44;36.80;;;34.30;;
48588;SDS011;34369;51.174;6.738;2023-04-24T05:22:22;36.97;;;34.50;;
48588;SDS011;34369;51.174;6.738;2023-04-24T05:24:55;36.57;;;34.07;;
48588;SDS011;34369;51.174;6.738;2023-04-24T05:27:31;36.10;;;33.60;;
48588;SDS011;34369;51.174;6.738;2023-04-24T05:30:06;35.70;;;33.40;;
48588;SDS011;34369;51.174;6.738;2023-04-24T05:32:43;36.17;;;33.67;;
48588;SDS011;34369;51.174;6.738;2023-04-24T05:35:16;36.07;;;33.67;;
48588;SDS011;34369;51.174;6.738;2023-04-24T05:37:49;36.87;;;34.57;;
48588;SDS011;34369;51.174;6.738;2023-04-24T05:40:25;35.17;;;32.70;;
48588;SDS011;34369;51.174;6.738;2023-04-24T05:43:01;35.30;;;33.03;;
48588;SDS011;34369;51.174;6.738;2023-04-24T05:45:37;36.07;;;33.67;;
48588;SDS011;34369;51.174;6.738;2023-04-24T05:48:10;33.83;;;31.53;;
48588;SDS011;34369;51.174;6.738;2023-04-24T05:50:48;35.43;;;33.13;;
48588;SDS011;34369;51.174;6.738;2023-04-24T05:53:22;35.10;;;32.73;;
48588;SDS011;34369;51.174;6.738;2023-04-24T05:55:56;36.77;;;34.27;;
48588;SDS011;34369;51.174;6.738;2023-04-24T05:58:34;35.80;;;33.50;;
48588;SDS011;34369;51.174;6.738;2023-04-24T06:01:08;35.20;;;32.90;;
48588;SDS011;34369;51.174;6.738;2023-04-24T06:03:50;35.20;;;32.90;;
48588;SDS011;34369;51.174;6.738;2023-04-24T06:06:27;35.73;;;33.33;;
48588;SDS011;34369;51.174;6.738;2023-04-24T06:09:02;36.80;;;34.30;;
48588;SDS011;34369;51.174;6.738;2023-04-24T06:11:36;36.00;;;33.67;;
48588;SDS011;34369;51.174;6.738;2023-04-24T06:14:10;36.43;;;34.03;;
48588;SDS011;34369;51.174;6.738;2023-04-24T06:16:42;37.03;;;34.63;;
48588;SDS011;34369;51.174;6.738;2023-04-24T06:19:14;36.37;;;34.07;;
48588;SDS011;34369;51.174;6.738;2023-04-24T06:21:46;35.47;;;33.17;;
48588;SDS011;34369;51.174;6.738;2023-04-24T06:24:18;36.53;;;34.17;;
48588;SDS011;34369;51.174;6.738;2023-04-24T06:26:50;36.27;;;33.97;;
48588;SDS011;34369;51.174;6.738;2023-04-24T06:29:23;35.93;;;33.53;;
48588;SDS011;34369;51.174;6.738;2023-04-24T06:31:55;35.10;;;32.70;;
48588;SDS011;34369;51.174;6.738;2023-04-24T06:34:27;34.72;;;32.53;;
48588;SDS011;34369;51.174;6.738;2023-04-24T06:37:00;34.93;;;32.73;;
48588;SDS011;34369;51.174;6.738;2023-04-24T06:39:32;34.80;;;32.60;;
48588;SDS011;34369;51.174;6.738;2023-04-24T06:42:04;36.97;;;34.47;;
48588;SDS011;34369;51.174;6.738;2023-04-24T06:44:39;35.33;;;33.03;;
48588;SDS011;34369;51.174;6.738;2023-04-24T06:47:11;35.60;;;33.30;;
48588;SDS011;34369;51.174;6.738;2023-04-24T06:49:43;34.33;;;32.10;;
48588;SDS011;34369;51.174;6.738;2023-04-24T06:52:15;33.80;;;31.70;;
48588;SDS011;34369;51.174;6.738;2023-04-24T06:54:48;32.57;;;30.47;;
48588;SDS011;34369;51.174;6.738;2023-04-24T06:57:20;34.60;;;32.40;;
48588;SDS011;34369;51.174;6.738;2023-04-24T06:59:57;31.83;;;29.80;;
48588;SDS011;34369;51.174;6.738;2023-04-24T07:02:31;33.37;;;31.17;;
48588;SDS011;34369;51.174;6.738;2023-04-24T07:05:05;33.47;;;31.27;;
48588;SDS011;34369;51.174;6.738;2023-04-24T07:07:38;33.27;;;31.17;;
48588;SDS011;34369;51.174;6.738;2023-04-24T07:10:13;33.30;;;31.10;;
48588;SDS011;34369;51.174;6.738;2023-04-24T07:12:47;32.57;;;30.47;;
48588;SDS011;34369;51.174;6.738;2023-04-24T07:15:21;32.83;;;30.83;;
48588;SDS011;34369;51.174;6.738;2023-04-24T07:17:53;32.50;;;30.47;;
48588;SDS011;34369;51.174;6.738;2023-04-24T07:20:26;34.63;;;32.53;;
48588;SDS011;34369;51.174;6.738;2023-04-24T07:22:58;33.70;;;31.70;;
48588;SDS011;34369;51.174;6.738;2023-04-24T07:25:30;33.27;;;31.27;;
48588;SDS011;34369;51.174;6.738;2023-04-24T07:28:02;32.47;;;30.37;;
48588;SDS011;34369;51.174;6.738;2023-04-24T07:30:36;32.87;;;30.77;;
48588;SDS011;34369;51.174;6.738;2023-04-24T07:33:08;32.90;;;30.90;;
48588;SDS011;34369;51.174;6.738;2023-04-24T07:35:43;32.03;;;30.03;;
48588;SDS011;34369;51.174;6.738;2023-04-24T07:38:17;32.37;;;30.30;;
48588;SDS011;34369;51.174;6.738;2023-04-24T07:40:51;32.20;;;30.20;;
48588;SDS011;34369;51.174;6.738;2023-04-24T07:43:23;33.40;;;31.30;;
48588;SDS011;34369;51.174;6.738;2023-04-24T07:45:57;32.73;;;30.73;;
48588;SDS011;34369;51.174;6.738;2023-04-24T07:48:30;32.20;;;30.30;;
48588;SDS011;34369;51.174;6.738;2023-04-24T07:53:51;33.07;;;31.07;;
48588;SDS011;34369;51.174;6.738;2023-04-24T07:56:38;32.93;;;30.93;;
48588;SDS011;34369;51.174;6.738;2023-04-24T07:59:12;31.47;;;29.57;;
48588;SDS011;34369;51.174;6.738;2023-04-24T08:01:46;32.80;;;30.80;;
48588;SDS011;34369;51.174;6.738;2023-04-24T08:04:19;32.77;;;30.80;;
48588;SDS011;34369;51.174;6.738;2023-04-24T08:06:51;33.07;;;31.07;;
48588;SDS011;34369;51.174;6.738;2023-04-24T08:09:25;33.00;;;31.10;;
48588;SDS011;34369;51.174;6.738;2023-04-24T08:11:59;33.07;;;31.10;;
48588;SDS011;34369;51.174;6.738;2023-04-24T08:14:32;33.23;;;31.27;;
48588;SDS011;34369;51.174;6.738;2023-04-24T08:17:05;32.20;;;30.13;;
48588;SDS011;34369;51.174;6.738;2023-04-24T08:19:39;31.80;;;29.87;;
48588;SDS011;34369;51.174;6.738;2023-04-24T08:22:18;33.83;;;31.80;;
48588;SDS011;34369;51.174;6.738;2023-04-24T08:24:52;33.90;;;31.80;;
48588;SDS011;34369;51.174;6.738;2023-04-24T08:27:25;34.57;;;32.37;;
48588;SDS011;34369;51.174;6.738;2023-04-24T08:29:58;33.83;;;31.73;;
48588;SDS011;34369;51.174;6.738;2023-04-24T08:32:35;34.73;;;32.43;;
48588;SDS011;34369;51.174;6.738;2023-04-24T08:35:08;35.40;;;33.20;;
48588;SDS011;34369;51.174;6.738;2023-04-24T08:37:41;34.63;;;32.43;;
48588;SDS011;34369;51.174;6.738;2023-04-24T08:40:15;33.90;;;31.70;;
48588;SDS011;34369;51.174;6.738;2023-04-24T08:42:51;35.20;;;33.03;;
48588;SDS011;34369;51.174;6.738;2023-04-24T08:45:27;35.77;;;33.57;;
48588;SDS011;34369;51.174;6.738;2023-04-24T08:48:02;35.38;;;33.28;;
48588;SDS011;34369;51.174;6.738;2023-04-24T08:50:37;34.17;;;32.07;;
48588;SDS011;34369;51.174;6.738;2023-04-24T08:53:13;34.73;;;32.47;;
48588;SDS011;34369;51.174;6.738;2023-04-24T08:55:51;34.30;;;32.20;;
48588;SDS011;34369;51.174;6.738;2023-04-24T08:58:26;35.40;;;33.30;;
48588;SDS011;34369;51.174;6.738;2023-04-24T09:01:00;33.90;;;31.80;;
48588;SDS011;34369;51.174;6.738;2023-04-24T09:03:37;34.85;;;32.75;;
48588;SDS011;34369;51.174;6.738;2023-04-24T09:06:11;33.20;;;31.20;;
48588;SDS011;34369;51.174;6.738;2023-04-24T09:08:46;34.60;;;32.50;;
48588;SDS011;34369;51.174;6.738;2023-04-24T09:14:26;34.00;;;31.90;;
48588;SDS011;34369;51.174;6.738;2023-04-24T09:17:01;33.92;;;31.75;;
48588;SDS011;34369;51.174;6.738;2023-04-24T09:19:34;34.20;;;32.03;;
48588;SDS011;34369;51.174;6.738;2023-04-24T09:22:07;35.80;;;33.50;;
48588;SDS011;34369;51.174;6.738;2023-04-24T09:24:44;34.80;;;32.20;;
48588;SDS011;34369;51.174;6.738;2023-04-24T09:27:23;33.45;;;31.35;;
48588;SDS011;34369;51.174;6.738;2023-04-24T09:29:56;34.77;;;32.57;;
48588;SDS011;34369;51.174;6.738;2023-04-24T09:32:28;34.10;;;31.80;;
48588;SDS011;34369;51.174;6.738;2023-04-24T09:35:05;33.13;;;30.83;;
48588;SDS011;34369;51.174;6.738;2023-04-24T09:37:41;35.50;;;33.13;;
48588;SDS011;34369;51.174;6.738;2023-04-24T09:40:20;36.27;;;33.87;;
48588;SDS011;34369;51.174;6.738;2023-04-24T09:45:35;35.27;;;32.97;;
48588;SDS011;34369;51.174;6.738;2023-04-24T09:48:09;36.10;;;33.75;;
48588;SDS011;34369;51.174;6.738;2023-04-24T09:50:43;35.53;;;33.10;;
48588;SDS011;34369;51.174;6.738;2023-04-24T09:53:17;36.30;;;33.83;;
48588;SDS011;34369;51.174;6.738;2023-04-24T09:55:56;36.17;;;33.67;;
48588;SDS011;34369;51.174;6.738;2023-04-24T09:58:36;37.57;;;34.97;;
48588;SDS011;34369;51.174;6.738;2023-04-24T10:01:08;36.30;;;33.83;;
48588;SDS011;34369;51.174;6.738;2023-04-24T10:03:41;36.37;;;33.87;;
48588;SDS011;34369;51.174;6.738;2023-04-24T10:06:14;36.60;;;34.00;;
48588;SDS011;34369;51.174;6.738;2023-04-24T10:08:46;35.63;;;33.23;;
48588;SDS011;34369;51.174;6.738;2023-04-24T10:11:20;36.60;;;34.17;;
48588;SDS011;34369;51.174;6.738;2023-04-24T10:13:54;36.83;;;34.43;;
48588;SDS011;34369;51.174;6.738;2023-04-24T10:16:28;35.73;;;33.30;;
48588;SDS011;34369;51.174;6.738;2023-04-24T10:19:01;35.93;;;33.50;;
48588;SDS011;34369;51.174;6.738;2023-04-24T10:21:35;35.90;;;33.30;;
48588;SDS011;34369;51.174;6.738;2023-04-24T10:24:08;34.40;;;32.07;;
48588;SDS011;34369;51.174;6.738;2023-04-24T10:26:41;36.10;;;33.53;;
48588;SDS011;34369;51.174;6.738;2023-04-24T10:29:16;35.50;;;32.93;;
48588;SDS011;34369;51.174;6.738;2023-04-24T10:31:52;36.60;;;33.40;;
48588;SDS011;34369;51.174;6.738;2023-04-24T10:34:25;34.67;;;32.10;;
48588;SDS011;34369;51.174;6.738;2023-04-24T10:36:57;34.70;;;32.30;;
48588;SDS011;34369;51.174;6.738;2023-04-24T10:39:30;34.10;;;31.70;;
48588;SDS011;34369;51.174;6.738;2023-04-24T10:42:14;34.83;;;32.30;;
48588;SDS011;34369;51.174;6.738;2023-04-24T10:44:48;34.37;;;32.07;;
48588;SDS011;34369;51.174;6.738;2023-04-24T10:47:21;34.50;;;31.97;;
48588;SDS011;34369;51.174;6.738;2023-04-24T10:49:55;33.90;;;31.50;;
48588;SDS011;34369;51.174;6.738;2023-04-24T10:52:43;34.97;;;32.47;;
48588;SDS011;34369;51.174;6.738;2023-04-24T10:55:16;33.83;;;31.53;;
48588;SDS011;34369;51.174;6.738;2023-04-24T10:58:12;34.20;;;31.80;;
48588;SDS011;34369;51.174;6.738;2023-04-24T11:00:56;32.97;;;30.57;;
48588;SDS011;34369;51.174;6.738;2023-04-24T11:03:31;34.03;;;31.47;;
48588;SDS011;34369;51.174;6.738;2023-04-24T11:06:05;33.83;;;31.27;;
48588;SDS011;34369;51.174;6.738;2023-04-24T11:08:42;33.42;;;30.83;;
48588;SDS011;34369;51.174;6.738;2023-04-24T11:11:16;33.20;;;30.73;;
48588;SDS011;34369;51.174;6.738;2023-04-24T11:14:03;33.40;;;31.03;;
48588;SDS011;34369;51.174;6.738;2023-04-24T11:16:44;32.53;;;30.17;;
48588;SDS011;34369;51.174;6.738;2023-04-24T11:19:23;34.03;;;31.33;;
48588;SDS011;34369;51.174;6.738;2023-04-24T11:21:58;34.53;;;31.93;;
48588;SDS011;34369;51.174;6.738;2023-04-24T11:24:32;32.87;;;30.37;;
48588;SDS011;34369;51.174;6.738;2023-04-24T11:27:11;34.40;;;31.70;;
48588;SDS011;34369;51.174;6.738;2023-04-24T11:29:47;34.28;;;31.65;;
48588;SDS011;34369;51.174;6.738;2023-04-24T11:32:34;33.17;;;30.67;;
48588;SDS011;34369;51.174;6.738;2023-04-24T11:35:08;32.65;;;30.33;;
48588;SDS011;34369;51.174;6.738;2023-04-24T11:37:45;32.75;;;30.05;;
48588;SDS011;34369;51.174;6.738;2023-04-24T11:40:20;33.67;;;31.27;;
48588;SDS011;34369;51.174;6.738;2023-04-24T11:42:55;32.47;;;30.08;;
48588;SDS011;34369;51.174;6.738;2023-04-24T11:45:29;32.15;;;29.83;;
48588;SDS011;34369;51.174;6.738;2023-04-24T11:48:05;32.55;;;29.98;;
48588;SDS011;34369;51.174;6.738;2023-04-24T11:50:37;32.00;;;29.70;;
48588;SDS011;34369;51.174;6.738;2023-04-24T11:53:09;33.38;;;31.13;;
48588;SDS011;34369;51.174;6.738;2023-04-24T11:55:41;32.78;;;30.27;;
48588;SDS011;34369;51.174;6.738;2023-04-24T11:58:13;32.10;;;29.70;;
48588;SDS011;34369;51.174;6.738;2023-04-24T12:00:45;31.77;;;29.58;;
48588;SDS011;34369;51.174;6.738;2023-04-24T12:03:29;32.15;;;29.95;;
48588;SDS011;34369;51.174;6.738;2023-04-24T12:06:04;33.00;;;30.60;;
48588;SDS011;34369;51.174;6.738;2023-04-24T12:08:37;32.97;;;30.77;;
48588;SDS011;34369;51.174;6.738;2023-04-24T12:11:09;31.23;;;28.95;;
48588;SDS011;34369;51.174;6.738;2023-04-24T12:13:42;31.40;;;29.20;;
48588;SDS011;34369;51.174;6.738;2023-04-24T12:16:15;31.63;;;29.45;;
48588;SDS011;34369;51.174;6.738;2023-04-24T12:18:50;30.55;;;28.45;;
48588;SDS011;34369;51.174;6.738;2023-04-24T12:21:23;30.40;;;28.05;;
48588;SDS011;34369;51.174;6.738;2023-04-24T12:23:56;31.38;;;29.17;;
48588;SDS011;34369;51.174;6.738;2023-04-24T12:26:29;31.90;;;29.58;;
48588;SDS011;34369;51.174;6.738;2023-04-24T12:29:02;31.98;;;29.77;;
48588;SDS011;34369;51.174;6.738;2023-04-24T12:31:35;32.13;;;29.65;;
48588;SDS011;34369;51.174;6.738;2023-04-24T12:34:18;31.83;;;29.75;;
48588;SDS011;34369;51.174;6.738;2023-04-24T12:36:51;30.52;;;28.42;;
48588;SDS011;34369;51.174;6.738;2023-04-24T12:39:23;30.63;;;28.52;;
48588;SDS011;34369;51.174;6.738;2023-04-24T12:41:56;31.05;;;28.85;;
48588;SDS011;34369;51.174;6.738;2023-04-24T12:44:32;30.15;;;28.05;;
48588;SDS011;34369;51.174;6.738;2023-04-24T12:47:07;30.92;;;28.90;;
48588;SDS011;34369;51.174;6.738;2023-04-24T12:49:41;29.05;;;27.10;;
48588;SDS011;34369;51.174;6.738;2023-04-24T12:52:13;29.75;;;27.75;;
48588;SDS011;34369;51.174;6.738;2023-04-24T12:54:46;29.70;;;27.65;;
48588;SDS011;34369;51.174;6.738;2023-04-24T12:57:19;30.17;;;28.27;;
48588;SDS011;34369;51.174;6.738;2023-04-24T12:59:53;29.77;;;27.88;;
48588;SDS011;34369;51.174;6.738;2023-04-24T13:02:26;31.00;;;28.80;;
48588;SDS011;34369;51.174;6.738;2023-04-24T13:05:02;30.60;;;28.50;;
48588;SDS011;34369;51.174;6.738;2023-04-24T13:07:35;30.63;;;28.63;;
48588;SDS011;34369;51.174;6.738;2023-04-24T13:10:08;30.15;;;28.15;;
48588;SDS011;34369;51.174;6.738;2023-04-24T13:12:41;30.33;;;28.10;;
48588;SDS011;34369;51.174;6.738;2023-04-24T13:15:16;30.50;;;28.48;;
48588;SDS011;34369;51.174;6.738;2023-04-24T13:17:48;30.50;;;28.48;;
48588;SDS011;34369;51.174;6.738;2023-04-24T13:20:22;29.45;;;27.52;;
48588;SDS011;34369;51.174;6.738;2023-04-24T13:22:55;29.85;;;27.88;;
48588;SDS011;34369;51.174;6.738;2023-04-24T13:25:30;29.42;;;27.42;;
48588;SDS011;34369;51.174;6.738;2023-04-24T13:28:09;30.42;;;28.33;;
48588;SDS011;34369;51.174;6.738;2023-04-24T13:30:41;30.40;;;28.40;;
48588;SDS011;34369;51.174;6.738;2023-04-24T13:33:13;30.95;;;28.83;;
48588;SDS011;34369;51.174;6.738;2023-04-24T13:35:47;29.38;;;27.38;;
48588;SDS011;34369;51.174;6.738;2023-04-24T13:38:20;29.52;;;27.48;;
48588;SDS011;34369;51.174;6.738;2023-04-24T13:40:53;29.67;;;27.73;;
48588;SDS011;34369;51.174;6.738;2023-04-24T13:43:26;29.75;;;27.75;;
48588;SDS011;34369;51.174;6.738;2023-04-24T13:45:58;29.63;;;27.63;;
48588;SDS011;34369;51.174;6.738;2023-04-24T13:48:32;30.38;;;28.33;;
48588;SDS011;34369;51.174;6.738;2023-04-24T13:51:06;29.50;;;27.48;;
48588;SDS011;34369;51.174;6.738;2023-04-24T13:53:38;30.85;;;28.65;;
48588;SDS011;34369;51.174;6.738;2023-04-24T13:58:43;29.30;;;27.30;;
48588;SDS011;34369;51.174;6.738;2023-04-24T14:01:16;29.92;;;28.02;;
48588;SDS011;34369;51.174;6.738;2023-04-24T14:03:48;30.02;;;28.02;;
48588;SDS011;34369;51.174;6.738;2023-04-24T14:06:22;30.80;;;28.63;;
48588;SDS011;34369;51.174;6.738;2023-04-24T14:08:54;29.58;;;27.50;;
48588;SDS011;34369;51.174;6.738;2023-04-24T14:11:26;30.65;;;28.65;;
48588;SDS011;34369;51.174;6.738;2023-04-24T14:14:00;29.35;;;27.35;;
48588;SDS011;34369;51.174;6.738;2023-04-24T14:16:32;29.55;;;27.45;;
48588;SDS011;34369;51.174;6.738;2023-04-24T14:19:05;30.38;;;28.27;;
48588;SDS011;34369;51.174;6.738;2023-04-24T14:21:37;30.42;;;28.33;;
48588;SDS011;34369;51.174;6.738;2023-04-24T14:24:10;29.90;;;27.88;;
48588;SDS011;34369;51.174;6.738;2023-04-24T14:26:44;30.48;;;28.45;;
48588;SDS011;34369;51.174;6.738;2023-04-24T14:29:17;30.23;;;28.10;;
48588;SDS011;34369;51.174;6.738;2023-04-24T14:31:50;30.27;;;28.30;;
48588;SDS011;34369;51.174;6.738;2023-04-24T14:34:22;30.25;;;28.35;;
48588;SDS011;34369;51.174;6.738;2023-04-24T14:37:00;30.63;;;28.63;;
48588;SDS011;34369;51.174;6.738;2023-04-24T14:39:32;30.38;;;28.38;;
48588;SDS011;34369;51.174;6.738;2023-04-24T14:42:05;29.70;;;27.80;;
48588;SDS011;34369;51.174;6.738;2023-04-24T14:44:42;30.02;;;28.13;;
48588;SDS011;34369;51.174;6.738;2023-04-24T14:47:16;29.13;;;27.33;;
48588;SDS011;34369;51.174;6.738;2023-04-24T14:49:51;29.65;;;27.65;;
48588;SDS011;34369;51.174;6.738;2023-04-24T14:52:24;29.60;;;27.70;;
48588;SDS011;34369;51.174;6.738;2023-04-24T14:54:57;29.33;;;27.42;;
48588;SDS011;34369;51.174;6.738;2023-04-24T14:57:30;29.42;;;27.40;;
48588;SDS011;34369;51.174;6.738;2023-04-24T15:00:03;29.17;;;27.15;;
48588;SDS011;34369;51.174;6.738;2023-04-24T15:02:39;29.90;;;27.90;;
48588;SDS011;34369;51.174;6.738;2023-04-24T15:05:14;29.58;;;27.65;;
48588;SDS011;34369;51.174;6.738;2023-04-24T15:07:46;27.45;;;25.55;;
48588;SDS011;34369;51.174;6.738;2023-04-24T15:10:18;29.40;;;27.50;;